Here is the Quick Look data you requested

The Data originates at the National Weather Service, and is made available here by the UAlbany Department of Atmospheric and Environmental Sciences

Surface Observations

KCHS 191056Z 25008KT 5SM -RA BR BKN010 BKN015 OVC034 17/16 A2977 RMK AO2 RAB06
 SLP079 P0000 T01720156=
KCHS 191110Z 22009KT 5SM -RA BR BKN038 OVC046 17/15 A2975 RMK AO2 P0000
 T01720150=
KCHS 191110Z 22009KT 5SM -RA BR BKN038 OVC046 17/15 A2975=
KCHS 191110Z 22009KT 5SM -RA BR BKN038 OVC046 17/15 A2975 RMK AO2 P0000
 T01720150=
KCHS 191156Z 26010KT 10SM BKN038 OVC060 17/15 A2978 RMK AO2 RAE19 SLP082
 T01670150 10189 20167 51018=
KCHS 191256Z 28010KT 10SM SCT030 BKN060 BKN100 16/13 A2980 RMK AO2 SLP092
 T01610133=
KCHS 191356Z 28010KT 10SM SCT022 BKN030 BKN100 16/13 A2983 RMK AO2 SLP100
 T01610133=
KCHS 191456Z 30013KT 10SM FEW025 SCT030 BKN100 16/09 A2986 RMK AO2 SLP110
 T01610094 52028=
KCHS 191556Z 32014G20KT 10SM FEW035 SCT100 18/08 A2986 RMK AO2 SLP111 T01830083=
KCHS 191656Z 31011G19KT 10SM FEW040 FEW100 18/08 A2985 RMK AO2 SLP108 T01830078=
KCHS 191756Z 34012G21KT 10SM FEW080 FEW200 19/08 A2984 RMK AO2 SLP104 60000
 T01890078 10189 20161 58007=
KCHS 191856Z 31010KT 10SM FEW200 19/07 A2984 RMK AO2 SLP104 T01890067=
KCHS 191956Z 29011KT 10SM FEW200 19/06 A2984 RMK AO2 SLP105 T01890056=
KCHS 192056Z 30012KT 10SM FEW200 18/04 A2986 RMK AO2 SLP112 T01830039 53008=
KCHS 192156Z 32007KT 10SM CLR 16/04 A2990 RMK AO2 SLP123 T01610039=
KCHS 192256Z 33005KT 10SM CLR 12/03 A2993 RMK AO2 SLP134 T01170033=
KCHS 192356Z 33004KT 10SM CLR 10/03 A2997 RMK AO2 SLP147 T01000033 10194 20100
 53036=
KCHS 200056Z 31006KT 10SM CLR 11/04 A3000 RMK AO2 SLP157 T01110039=
KCHS 200156Z 34006KT 10SM CLR 09/03 A3003 RMK AO2 SLP168 T00890033=
KCHS 200256Z 33006KT 10SM CLR 08/03 A3006 RMK AO2 SLP178 T00830033 53031=
KCHS 200356Z 33005KT 10SM CLR 07/03 A3008 RMK AO2 SLP183 T00720033=
KCHS 200456Z 36007KT 10SM CLR 04/03 A3009 RMK AO2 SLP190 T00440028 401940044=
KCHS 200556Z 01009KT 10SM CLR 08/02 A3012 RMK AO2 SLP199 T00780017 10122 20044
 53021=
KCHS 200656Z 04007KT 10SM CLR 07/01 A3013 RMK AO2 SLP201 T00670006=
KCHS 200756Z 03005KT 10SM CLR 06/01 A3014 RMK AO2 SLP206 T00560006=
KCHS 200856Z 02004KT 10SM FEW030 05/00 A3015 RMK AO2 SLP210 T00500000 53011=
KCHS 200956Z 02004KT 10SM CLR 03/00 A3019 RMK AO2 SLP222 T00330000=
KCHS 201056Z 00000KT 10SM CLR 03/00 A3020 RMK AO2 SLP226 T00330000=
KCHS 201156Z 01005KT 10SM CLR 02/00 A3022 RMK AO2 SLP233 T00220000 10078 20022
 51023=
KCHS 201256Z 04004KT 10SM CLR 06/02 A3025 RMK AO2 SLP242 T00560017=
KCHS 201356Z 08007KT 10SM FEW250 08/01 A3027 RMK AO2 SLP250 T00830011=
KCHS 201456Z VRB05KT 10SM FEW250 11/01 A3028 RMK AO2 SLP252 T01110006 51020=
KCHS 201556Z 04007KT 10SM FEW250 13/M01 A3027 RMK AO2 SLP249 T01281006=
KCHS 201656Z VRB05KT 10SM FEW250 14/M01 A3026 RMK AO2 SLP246 T01441006=
KCHS 201756Z 02004KT 10SM CLR 15/M01 A3024 RMK AO2 SLP240 T01501011 10156 20022
 58013=
KCHS 201856Z 02005KT 10SM SCT250 16/M01 A3023 RMK AO2 SLP236 T01611011=
KCHS 201956Z 12003KT 10SM SCT250 16/M01 A3022 RMK AO2 SLP234 T01611006=
KCHS 202056Z 05005KT 10SM BKN250 15/00 A3022 RMK AO2 SLP233 T01500000 56006=
KCHS 202156Z 12008KT 10SM BKN200 13/04 A3023 RMK AO2 SLP234 T01280039=
KCHS 202256Z 00000KT 10SM SCT200 11/04 A3024 RMK AO2 SLP238 T01110039=